sensor_id;sensor_type;location;lat;lon;timestamp;temperature;humidity
21805;DHT22;11064;47.102;15.452;2023-11-21T05:03:28;7.50;99.90
21805;DHT22;11064;47.102;15.452;2023-11-21T05:05:55;7.40;99.90
21805;DHT22;11064;47.102;15.452;2023-11-21T05:08:21;7.40;99.90
21805;DHT22;11064;47.102;15.452;2023-11-21T05:10:48;7.40;99.90
21805;DHT22;11064;47.102;15.452;2023-11-21T05:13:17;7.40;99.90
21805;DHT22;11064;47.102;15.452;2023-11-21T05:15:44;7.40;99.90
21805;DHT22;11064;47.102;15.452;2023-11-21T05:18:10;7.30;99.90
21805;DHT22;11064;47.102;15.452;2023-11-21T05:20:36;7.30;99.90
21805;DHT22;11064;47.102;15.452;2023-11-21T05:23:02;7.20;99.90
21805;DHT22;11064;47.102;15.452;2023-11-21T05:25:28;7.30;99.90
21805;DHT22;11064;47.102;15.452;2023-11-21T05:27:54;7.40;99.90
21805;DHT22;11064;47.102;15.452;2023-11-21T05:30:21;7.40;99.90
21805;DHT22;11064;47.102;15.452;2023-11-21T05:32:47;7.40;99.90
21805;DHT22;11064;47.102;15.452;2023-11-21T05:35:15;7.40;99.90
21805;DHT22;11064;47.102;15.452;2023-11-21T05:37:45;7.30;99.90
21805;DHT22;11064;47.102;15.452;2023-11-21T05:40:11;7.20;99.90
21805;DHT22;11064;47.102;15.452;2023-11-21T05:42:39;7.20;99.90
21805;DHT22;11064;47.102;15.452;2023-11-21T05:45:07;7.20;99.90
21805;DHT22;11064;47.102;15.452;2023-11-21T05:47:40;7.20;99.90
21805;DHT22;11064;47.102;15.452;2023-11-21T05:50:08;7.20;99.90
21805;DHT22;11064;47.102;15.452;2023-11-21T05:52:44;7.20;99.90
21805;DHT22;11064;47.102;15.452;2023-11-21T05:55:10;7.30;99.90
21805;DHT22;11064;47.102;15.452;2023-11-21T05:57:41;7.40;99.90
21805;DHT22;11064;47.102;15.452;2023-11-21T06:00:12;7.40;99.90
21805;DHT22;11064;47.102;15.452;2023-11-21T06:02:41;7.40;99.90
21805;DHT22;11064;47.102;15.452;2023-11-21T06:05:07;7.40;99.90
21805;DHT22;11064;47.102;15.452;2023-11-21T06:07:34;7.50;99.90
21805;DHT22;11064;47.102;15.452;2023-11-21T06:10:02;7.50;99.90
21805;DHT22;11064;47.102;15.452;2023-11-21T06:12:28;7.60;99.90
21805;DHT22;11064;47.102;15.452;2023-11-21T06:14:54;7.60;99.90
21805;DHT22;11064;47.102;15.452;2023-11-21T06:17:21;7.60;99.90
21805;DHT22;11064;47.102;15.452;2023-11-21T06:19:47;7.70;99.90
21805;DHT22;11064;47.102;15.452;2023-11-21T06:22:13;7.70;99.90
21805;DHT22;11064;47.102;15.452;2023-11-21T06:24:39;7.70;99.90
21805;DHT22;11064;47.102;15.452;2023-11-21T06:27:06;7.60;99.90
21805;DHT22;11064;47.102;15.452;2023-11-21T06:29:32;7.50;99.90
21805;DHT22;11064;47.102;15.452;2023-11-21T06:31:57;7.40;99.90
21805;DHT22;11064;47.102;15.452;2023-11-21T06:34:24;7.20;99.90
21805;DHT22;11064;47.102;15.452;2023-11-21T06:36:49;7.20;99.90
21805;DHT22;11064;47.102;15.452;2023-11-21T06:39:15;7.30;99.90
21805;DHT22;11064;47.102;15.452;2023-11-21T06:41:43;7.20;99.90
21805;DHT22;11064;47.102;15.452;2023-11-21T06:44:08;7.10;99.90
21805;DHT22;11064;47.102;15.452;2023-11-21T06:46:34;7.00;99.90
21805;DHT22;11064;47.102;15.452;2023-11-21T06:49:00;7.10;99.90
21805;DHT22;11064;47.102;15.452;2023-11-21T06:51:26;7.10;99.90
21805;DHT22;11064;47.102;15.452;2023-11-21T06:53:51;7.20;99.90
21805;DHT22;11064;47.102;15.452;2023-11-21T06:56:18;7.20;99.90
21805;DHT22;11064;47.102;15.452;2023-11-21T06:58:45;7.20;99.90
21805;DHT22;11064;47.102;15.452;2023-11-21T07:01:13;7.10;99.90
21805;DHT22;11064;47.102;15.452;2023-11-21T07:03:39;7.10;99.90
21805;DHT22;11064;47.102;15.452;2023-11-21T07:06:07;7.20;99.90
21805;DHT22;11064;47.102;15.452;2023-11-21T07:08:33;7.30;99.90
21805;DHT22;11064;47.102;15.452;2023-11-21T07:10:59;7.20;99.90
21805;DHT22;11064;47.102;15.452;2023-11-21T07:13:24;7.20;99.90
21805;DHT22;11064;47.102;15.452;2023-11-21T07:15:51;7.20;99.90
21805;DHT22;11064;47.102;15.452;2023-11-21T07:18:18;7.10;99.90
21805;DHT22;11064;47.102;15.452;2023-11-21T07:20:43;7.00;99.90
21805;DHT22;11064;47.102;15.452;2023-11-21T07:23:09;6.90;99.90
21805;DHT22;11064;47.102;15.452;2023-11-21T07:25:36;6.80;99.90
21805;DHT22;11064;47.102;15.452;2023-11-21T07:28:03;6.70;99.90
21805;DHT22;11064;47.102;15.452;2023-11-21T07:30:31;6.70;99.90
21805;DHT22;11064;47.102;15.452;2023-11-21T07:32:56;6.80;99.90
21805;DHT22;11064;47.102;15.452;2023-11-21T07:35:22;6.90;99.90
21805;DHT22;11064;47.102;15.452;2023-11-21T07:37:48;7.00;99.90
21805;DHT22;11064;47.102;15.452;2023-11-21T07:40:14;7.20;99.90
21805;DHT22;11064;47.102;15.452;2023-11-21T07:42:40;7.40;99.90
21805;DHT22;11064;47.102;15.452;2023-11-21T07:45:08;7.50;99.90
21805;DHT22;11064;47.102;15.452;2023-11-21T07:47:34;7.70;99.90
21805;DHT22;11064;47.102;15.452;2023-11-21T07:50:02;7.90;99.90
21805;DHT22;11064;47.102;15.452;2023-11-21T07:52:28;8.00;99.90
21805;DHT22;11064;47.102;15.452;2023-11-21T07:54:55;8.00;99.90
21805;DHT22;11064;47.102;15.452;2023-11-21T07:57:21;8.10;99.90
21805;DHT22;11064;47.102;15.452;2023-11-21T07:59:47;8.20;99.90
21805;DHT22;11064;47.102;15.452;2023-11-21T08:02:13;8.40;99.90
21805;DHT22;11064;47.102;15.452;2023-11-21T08:04:40;8.50;99.90
21805;DHT22;11064;47.102;15.452;2023-11-21T08:07:06;8.60;99.90
21805;DHT22;11064;47.102;15.452;2023-11-21T08:09:32;8.70;99.90
21805;DHT22;11064;47.102;15.452;2023-11-21T08:11:59;8.80;99.90
21805;DHT22;11064;47.102;15.452;2023-11-21T08:14:28;8.90;99.90
21805;DHT22;11064;47.102;15.452;2023-11-21T08:16:53;8.80;99.90
21805;DHT22;11064;47.102;15.452;2023-11-21T08:19:23;8.80;99.90
21805;DHT22;11064;47.102;15.452;2023-11-21T08:21:51;8.90;99.90
21805;DHT22;11064;47.102;15.452;2023-11-21T08:24:21;8.90;99.90
21805;DHT22;11064;47.102;15.452;2023-11-21T08:26:47;8.90;99.90
21805;DHT22;11064;47.102;15.452;2023-11-21T08:29:13;9.00;99.90
21805;DHT22;11064;47.102;15.452;2023-11-21T08:31:39;9.00;99.90
21805;DHT22;11064;47.102;15.452;2023-11-21T08:34:06;9.00;99.90
21805;DHT22;11064;47.102;15.452;2023-11-21T08:36:32;9.10;99.90
21805;DHT22;11064;47.102;15.452;2023-11-21T08:38:58;9.00;99.90
21805;DHT22;11064;47.102;15.452;2023-11-21T08:41:23;9.10;99.90
21805;DHT22;11064;47.102;15.452;2023-11-21T08:43:52;9.10;99.90
21805;DHT22;11064;47.102;15.452;2023-11-21T08:46:19;9.20;99.90
21805;DHT22;11064;47.102;15.452;2023-11-21T08:48:45;9.30;99.90
21805;DHT22;11064;47.102;15.452;2023-11-21T08:51:11;9.30;99.90
21805;DHT22;11064;47.102;15.452;2023-11-21T08:53:37;9.30;99.90
21805;DHT22;11064;47.102;15.452;2023-11-21T08:56:04;9.40;99.90
21805;DHT22;11064;47.102;15.452;2023-11-21T08:58:31;9.60;99.90
21805;DHT22;11064;47.102;15.452;2023-11-21T09:00:58;9.80;99.90
21805;DHT22;11064;47.102;15.452;2023-11-21T09:03:23;9.80;99.90
21805;DHT22;11064;47.102;15.452;2023-11-21T09:05:50;9.90;99.90
21805;DHT22;11064;47.102;15.452;2023-11-21T09:08:16;9.90;99.90
21805;DHT22;11064;47.102;15.452;2023-11-21T09:10:42;10.00;99.90
21805;DHT22;11064;47.102;15.452;2023-11-21T09:13:10;10.00;99.90
21805;DHT22;11064;47.102;15.452;2023-11-21T09:15:39;10.00;99.90
21805;DHT22;11064;47.102;15.452;2023-11-21T09:18:06;10.20;99.90
21805;DHT22;11064;47.102;15.452;2023-11-21T09:20:32;10.40;99.90
21805;DHT22;11064;47.102;15.452;2023-11-21T09:22:58;10.50;99.90
21805;DHT22;11064;47.102;15.452;2023-11-21T09:25:24;10.40;99.90
21805;DHT22;11064;47.102;15.452;2023-11-21T09:27:49;10.20;99.90
21805;DHT22;11064;47.102;15.452;2023-11-21T09:30:15;10.00;99.90
21805;DHT22;11064;47.102;15.452;2023-11-21T09:32:42;9.80;99.90
21805;DHT22;11064;47.102;15.452;2023-11-21T09:35:10;9.80;99.90
21805;DHT22;11064;47.102;15.452;2023-11-21T09:37:37;9.60;99.90
21805;DHT22;11064;47.102;15.452;2023-11-21T09:40:04;9.50;99.90
21805;DHT22;11064;47.102;15.452;2023-11-21T09:42:36;9.60;99.90
21805;DHT22;11064;47.102;15.452;2023-11-21T09:47:39;9.50;99.90
21805;DHT22;11064;47.102;15.452;2023-11-21T09:50:06;9.40;99.90
21805;DHT22;11064;47.102;15.452;2023-11-21T09:52:49;9.40;99.90
21805;DHT22;11064;47.102;15.452;2023-11-21T09:55:18;9.60;99.90
21805;DHT22;11064;47.102;15.452;2023-11-21T09:57:48;9.60;99.90
21805;DHT22;11064;47.102;15.452;2023-11-21T10:00:15;9.70;99.90
21805;DHT22;11064;47.102;15.452;2023-11-21T10:02:43;9.60;99.90
21805;DHT22;11064;47.102;15.452;2023-11-21T10:05:09;9.50;99.90
21805;DHT22;11064;47.102;15.452;2023-11-21T10:07:38;9.40;99.90
21805;DHT22;11064;47.102;15.452;2023-11-21T10:10:07;9.40;99.90
21805;DHT22;11064;47.102;15.452;2023-11-21T10:12:33;9.40;99.90
21805;DHT22;11064;47.102;15.452;2023-11-21T10:15:02;9.30;99.90
21805;DHT22;11064;47.102;15.452;2023-11-21T10:17:31;9.30;99.90
21805;DHT22;11064;47.102;15.452;2023-11-21T10:20:04;9.20;99.90
21805;DHT22;11064;47.102;15.452;2023-11-21T10:22:32;9.20;99.90
21805;DHT22;11064;47.102;15.452;2023-11-21T10:24:57;9.30;99.90
21805;DHT22;11064;47.102;15.452;2023-11-21T10:27:23;9.30;99.90
21805;DHT22;11064;47.102;15.452;2023-11-21T10:29:52;9.40;99.90
21805;DHT22;11064;47.102;15.452;2023-11-21T10:32:17;9.30;99.90
21805;DHT22;11064;47.102;15.452;2023-11-21T10:34:56;9.40;99.90
21805;DHT22;11064;47.102;15.452;2023-11-21T10:37:22;9.40;99.90
21805;DHT22;11064;47.102;15.452;2023-11-21T10:39:49;9.40;99.90
21805;DHT22;11064;47.102;15.452;2023-11-21T10:42:18;9.50;99.90
21805;DHT22;11064;47.102;15.452;2023-11-21T10:44:46;9.60;99.90
21805;DHT22;11064;47.102;15.452;2023-11-21T10:47:11;9.70;99.90
21805;DHT22;11064;47.102;15.452;2023-11-21T10:49:37;9.90;99.90
21805;DHT22;11064;47.102;15.452;2023-11-21T10:52:03;10.10;99.90
21805;DHT22;11064;47.102;15.452;2023-11-21T10:54:30;10.00;99.90
21805;DHT22;11064;47.102;15.452;2023-11-21T10:57:00;10.00;99.90
21805;DHT22;11064;47.102;15.452;2023-11-21T10:59:30;9.90;99.90
21805;DHT22;11064;47.102;15.452;2023-11-21T11:01:58;9.90;99.90
21805;DHT22;11064;47.102;15.452;2023-11-21T11:04:27;9.90;99.90
21805;DHT22;11064;47.102;15.452;2023-11-21T11:07:03;9.90;99.90
21805;DHT22;11064;47.102;15.452;2023-11-21T11:09:31;9.90;99.90
21805;DHT22;11064;47.102;15.452;2023-11-21T11:12:03;10.00;99.90
21805;DHT22;11064;47.102;15.452;2023-11-21T11:14:32;10.00;99.90
21805;DHT22;11064;47.102;15.452;2023-11-21T11:16:58;10.10;99.90
21805;DHT22;11064;47.102;15.452;2023-11-21T11:19:26;10.20;99.90
21805;DHT22;11064;47.102;15.452;2023-11-21T11:36:00;10.10;99.90
21805;DHT22;11064;47.102;15.452;2023-11-21T11:38:32;10.20;99.90
21805;DHT22;11064;47.102;15.452;2023-11-21T11:41:03;10.30;99.90
21805;DHT22;11064;47.102;15.452;2023-11-21T11:43:29;10.30;99.90
21805;DHT22;11064;47.102;15.452;2023-11-21T11:45:59;10.40;99.90
21805;DHT22;11064;47.102;15.452;2023-11-21T11:48:29;10.30;99.90
21805;DHT22;11064;47.102;15.452;2023-11-21T11:51:11;10.30;99.90
21805;DHT22;11064;47.102;15.452;2023-11-21T11:53:41;10.20;99.90
21805;DHT22;11064;47.102;15.452;2023-11-21T11:56:31;10.20;99.90
21805;DHT22;11064;47.102;15.452;2023-11-21T11:59:04;10.10;99.90
21805;DHT22;11064;47.102;15.452;2023-11-21T12:01:33;10.10;99.90
21805;DHT22;11064;47.102;15.452;2023-11-21T12:06:46;10.00;99.90
21805;DHT22;11064;47.102;15.452;2023-11-21T12:09:21;10.00;99.90
21805;DHT22;11064;47.102;15.452;2023-11-21T12:11:48;10.10;99.90
21805;DHT22;11064;47.102;15.452;2023-11-21T12:14:15;10.20;99.90
21805;DHT22;11064;47.102;15.452;2023-11-21T12:16:42;10.30;99.90
21805;DHT22;11064;47.102;15.452;2023-11-21T12:19:11;10.50;99.90
21805;DHT22;11064;47.102;15.452;2023-11-21T12:21:37;10.50;99.90
21805;DHT22;11064;47.102;15.452;2023-11-21T12:24:03;10.50;99.90
21805;DHT22;11064;47.102;15.452;2023-11-21T12:26:29;10.50;99.90
21805;DHT22;11064;47.102;15.452;2023-11-21T12:28:55;10.30;99.90
21805;DHT22;11064;47.102;15.452;2023-11-21T12:31:23;10.40;99.90
21805;DHT22;11064;47.102;15.452;2023-11-21T12:33:51;10.40;99.90
21805;DHT22;11064;47.102;15.452;2023-11-21T12:36:17;10.40;99.90
21805;DHT22;11064;47.102;15.452;2023-11-21T12:38:43;10.50;99.90
21805;DHT22;11064;47.102;15.452;2023-11-21T12:41:12;10.50;99.90
21805;DHT22;11064;47.102;15.452;2023-11-21T12:43:38;10.40;99.90
21805;DHT22;11064;47.102;15.452;2023-11-21T12:46:10;10.30;99.90
21805;DHT22;11064;47.102;15.452;2023-11-21T12:48:42;10.30;99.90
21805;DHT22;11064;47.102;15.452;2023-11-21T12:51:10;10.40;99.90
21805;DHT22;11064;47.102;15.452;2023-11-21T12:53:45;10.50;99.90
21805;DHT22;11064;47.102;15.452;2023-11-21T12:56:12;10.40;99.90
21805;DHT22;11064;47.102;15.452;2023-11-21T12:58:40;10.40;99.90
21805;DHT22;11064;47.102;15.452;2023-11-21T13:01:07;10.40;99.90
21805;DHT22;11064;47.102;15.452;2023-11-21T13:03:40;10.40;99.90
21805;DHT22;11064;47.102;15.452;2023-11-21T13:06:07;10.30;99.90
21805;DHT22;11064;47.102;15.452;2023-11-21T13:08:39;10.30;99.90
21805;DHT22;11064;47.102;15.452;2023-11-21T13:11:05;10.20;99.90
21805;DHT22;11064;47.102;15.452;2023-11-21T13:13:32;10.10;99.90
21805;DHT22;11064;47.102;15.452;2023-11-21T13:16:00;10.00;99.90
21805;DHT22;11064;47.102;15.452;2023-11-21T13:18:28;9.90;99.90
21805;DHT22;11064;47.102;15.452;2023-11-21T13:21:02;9.80;99.90
21805;DHT22;11064;47.102;15.452;2023-11-21T13:23:45;9.70;99.90
21805;DHT22;11064;47.102;15.452;2023-11-21T13:26:12;9.60;99.90
21805;DHT22;11064;47.102;15.452;2023-11-21T13:28:48;9.50;99.90
21805;DHT22;11064;47.102;15.452;2023-11-21T13:31:14;9.50;99.90
21805;DHT22;11064;47.102;15.452;2023-11-21T13:33:52;9.60;99.90
21805;DHT22;11064;47.102;15.452;2023-11-21T13:36:23;9.70;99.90
21805;DHT22;11064;47.102;15.452;2023-11-21T13:38:50;9.70;99.90
21805;DHT22;11064;47.102;15.452;2023-11-21T13:41:16;9.70;99.90
21805;DHT22;11064;47.102;15.452;2023-11-21T13:43:43;9.60;99.90
21805;DHT22;11064;47.102;15.452;2023-11-21T13:46:16;9.60;99.90
21805;DHT22;11064;47.102;15.452;2023-11-21T13:48:48;9.60;99.90
21805;DHT22;11064;47.102;15.452;2023-11-21T13:51:24;9.60;99.90
21805;DHT22;11064;47.102;15.452;2023-11-21T13:54:03;9.70;99.90
21805;DHT22;11064;47.102;15.452;2023-11-21T13:56:35;9.70;99.90
21805;DHT22;11064;47.102;15.452;2023-11-21T13:59:01;9.70;99.90
21805;DHT22;11064;47.102;15.452;2023-11-21T14:01:35;9.60;99.90
21805;DHT22;11064;47.102;15.452;2023-11-21T14:04:19;9.50;99.90
21805;DHT22;11064;47.102;15.452;2023-11-21T14:06:56;9.40;99.90
21805;DHT22;11064;47.102;15.452;2023-11-21T14:09:24;9.40;99.90
21805;DHT22;11064;47.102;15.452;2023-11-21T14:11:55;9.20;99.90
21805;DHT22;11064;47.102;15.452;2023-11-21T14:14:26;9.00;99.90
21805;DHT22;11064;47.102;15.452;2023-11-21T14:16:53;8.90;99.90
21805;DHT22;11064;47.102;15.452;2023-11-21T14:19:21;8.80;99.90
21805;DHT22;11064;47.102;15.452;2023-11-21T14:21:47;8.60;99.90
21805;DHT22;11064;47.102;15.452;2023-11-21T14:24:18;8.50;99.90
21805;DHT22;11064;47.102;15.452;2023-11-21T14:26:45;8.40;99.90
21805;DHT22;11064;47.102;15.452;2023-11-21T14:29:15;8.20;99.90
21805;DHT22;11064;47.102;15.452;2023-11-21T14:31:45;8.20;99.90
21805;DHT22;11064;47.102;15.452;2023-11-21T14:34:11;8.00;99.90
21805;DHT22;11064;47.102;15.452;2023-11-21T14:36:38;7.90;99.90
21805;DHT22;11064;47.102;15.452;2023-11-21T14:39:05;7.80;99.90
21805;DHT22;11064;47.102;15.452;2023-11-21T14:41:35;7.70;99.90
21805;DHT22;11064;47.102;15.452;2023-11-21T14:44:03;7.60;99.90
21805;DHT22;11064;47.102;15.452;2023-11-21T14:46:30;7.40;99.90
21805;DHT22;11064;47.102;15.452;2023-11-21T14:48:56;7.30;99.90
21805;DHT22;11064;47.102;15.452;2023-11-21T14:51:37;7.10;99.90
21805;DHT22;11064;47.102;15.452;2023-11-21T14:54:22;7.00;99.90
21805;DHT22;11064;47.102;15.452;2023-11-21T14:57:08;6.80;99.90
21805;DHT22;11064;47.102;15.452;2023-11-21T14:59:47;6.70;99.90
21805;DHT22;11064;47.102;15.452;2023-11-21T15:02:23;6.60;99.90
21805;DHT22;11064;47.102;15.452;2023-11-21T15:05:10;6.40;99.90
21805;DHT22;11064;47.102;15.452;2023-11-21T15:07:42;6.30;99.90
21805;DHT22;11064;47.102;15.452;2023-11-21T15:10:09;6.30;99.90
21805;DHT22;11064;47.102;15.452;2023-11-21T15:12:40;6.20;99.90
21805;DHT22;11064;47.102;15.452;2023-11-21T15:15:07;6.20;99.90
21805;DHT22;11064;47.102;15.452;2023-11-21T15:17:36;6.20;99.90
21805;DHT22;11064;47.102;15.452;2023-11-21T15:20:03;6.30;99.90
21805;DHT22;11064;47.102;15.452;2023-11-21T15:22:32;6.30;99.90
21805;DHT22;11064;47.102;15.452;2023-11-21T15:24:58;6.40;99.90
21805;DHT22;11064;47.102;15.452;2023-11-21T15:27:25;6.50;99.90
21805;DHT22;11064;47.102;15.452;2023-11-21T15:29:52;6.50;99.90
21805;DHT22;11064;47.102;15.452;2023-11-21T15:32:19;6.50;99.90
21805;DHT22;11064;47.102;15.452;2023-11-21T15:34:45;6.50;99.90
21805;DHT22;11064;47.102;15.452;2023-11-21T15:37:12;6.50;99.90
21805;DHT22;11064;47.102;15.452;2023-11-21T15:39:39;6.50;99.90
21805;DHT22;11064;47.102;15.452;2023-11-21T15:42:05;6.60;99.90
21805;DHT22;11064;47.102;15.452;2023-11-21T15:44:32;6.60;99.90
21805;DHT22;11064;47.102;15.452;2023-11-21T15:46:59;6.60;99.90
21805;DHT22;11064;47.102;15.452;2023-11-21T15:49:25;6.50;99.90
21805;DHT22;11064;47.102;15.452;2023-11-21T15:51:53;6.50;99.90
21805;DHT22;11064;47.102;15.452;2023-11-21T15:54:20;6.40;99.90
21805;DHT22;11064;47.102;15.452;2023-11-21T15:56:47;6.40;99.90
21805;DHT22;11064;47.102;15.452;2023-11-21T15:59:13;6.30;99.90
21805;DHT22;11064;47.102;15.452;2023-11-21T16:01:39;6.30;99.90
21805;DHT22;11064;47.102;15.452;2023-11-21T16:04:14;6.30;99.90
21805;DHT22;11064;47.102;15.452;2023-11-21T16:06:43;6.40;99.90
21805;DHT22;11064;47.102;15.452;2023-11-21T16:09:11;6.30;99.90
21805;DHT22;11064;47.102;15.452;2023-11-21T16:11:54;6.40;99.90
21805;DHT22;11064;47.102;15.452;2023-11-21T16:14:26;6.40;99.90
21805;DHT22;11064;47.102;15.452;2023-11-21T16:16:53;6.40;99.90
21805;DHT22;11064;47.102;15.452;2023-11-21T16:19:20;6.40;99.90
21805;DHT22;11064;47.102;15.452;2023-11-21T16:21:48;6.40;99.90
21805;DHT22;11064;47.102;15.452;2023-11-21T16:24:14;6.40;99.90
21805;DHT22;11064;47.102;15.452;2023-11-21T16:26:44;6.40;99.90
21805;DHT22;11064;47.102;15.452;2023-11-21T16:29:11;6.30;99.90
21805;DHT22;11064;47.102;15.452;2023-11-21T16:31:41;6.30;99.90
21805;DHT22;11064;47.102;15.452;2023-11-21T16:34:18;6.30;99.90
21805;DHT22;11064;47.102;15.452;2023-11-21T16:36:45;6.40;99.90
21805;DHT22;11064;47.102;15.452;2023-11-21T16:39:12;6.40;99.90
21805;DHT22;11064;47.102;15.452;2023-11-21T16:41:39;6.40;99.90
21805;DHT22;11064;47.102;15.452;2023-11-21T16:44:05;6.40;99.90
21805;DHT22;11064;47.102;15.452;2023-11-21T16:46:32;6.30;99.90
21805;DHT22;11064;47.102;15.452;2023-11-21T16:48:58;6.40;99.90
21805;DHT22;11064;47.102;15.452;2023-11-21T16:51:24;6.40;99.90
21805;DHT22;11064;47.102;15.452;2023-11-21T16:53:50;6.40;99.90
21805;DHT22;11064;47.102;15.452;2023-11-21T16:56:15;6.50;99.90
21805;DHT22;11064;47.102;15.452;2023-11-21T16:58:48;6.40;99.90
21805;DHT22;11064;47.102;15.452;2023-11-21T17:01:15;6.40;99.90
21805;DHT22;11064;47.102;15.452;2023-11-21T17:03:43;6.40;99.90
21805;DHT22;11064;47.102;15.452;2023-11-21T17:06:09;6.30;99.90
21805;DHT22;11064;47.102;15.452;2023-11-21T17:08:35;6.40;99.90
21805;DHT22;11064;47.102;15.452;2023-11-21T17:11:02;6.40;99.90
21805;DHT22;11064;47.102;15.452;2023-11-21T17:13:29;6.50;99.90
21805;DHT22;11064;47.102;15.452;2023-11-21T17:15:55;6.40;99.90
21805;DHT22;11064;47.102;15.452;2023-11-21T17:18:21;6.40;99.90
21805;DHT22;11064;47.102;15.452;2023-11-21T17:20:47;6.30;99.90
21805;DHT22;11064;47.102;15.452;2023-11-21T17:23:14;6.30;99.90
21805;DHT22;11064;47.102;15.452;2023-11-21T17:25:40;6.30;99.90
21805;DHT22;11064;47.102;15.452;2023-11-21T17:28:06;6.40;99.90
21805;DHT22;11064;47.102;15.452;2023-11-21T17:30:32;6.40;99.90
21805;DHT22;11064;47.102;15.452;2023-11-21T17:32:58;6.40;99.90
21805;DHT22;11064;47.102;15.452;2023-11-21T17:35:23;6.40;99.90
21805;DHT22;11064;47.102;15.452;2023-11-21T17:37:49;6.40;99.90
21805;DHT22;11064;47.102;15.452;2023-11-21T17:40:15;6.50;99.90
21805;DHT22;11064;47.102;15.452;2023-11-21T17:42:41;6.50;99.90
21805;DHT22;11064;47.102;15.452;2023-11-21T17:45:08;6.40;99.90
21805;DHT22;11064;47.102;15.452;2023-11-21T17:47:34;6.40;99.90
21805;DHT22;11064;47.102;15.452;2023-11-21T17:49:59;6.30;99.90
21805;DHT22;11064;47.102;15.452;2023-11-21T17:52:26;6.30;99.90
21805;DHT22;11064;47.102;15.452;2023-11-21T17:54:52;6.30;99.90
21805;DHT22;11064;47.102;15.452;2023-11-21T17:57:18;6.20;99.90
21805;DHT22;11064;47.102;15.452;2023-11-21T17:59:44;6.20;99.90
21805;DHT22;11064;47.102;15.452;2023-11-21T18:02:13;6.20;99.90
21805;DHT22;11064;47.102;15.452;2023-11-21T18:04:38;6.20;99.90
21805;DHT22;11064;47.102;15.452;2023-11-21T18:07:04;6.20;99.90
21805;DHT22;11064;47.102;15.452;2023-11-21T18:09:30;6.20;99.90
21805;DHT22;11064;47.102;15.452;2023-11-21T18:11:56;6.20;99.90
21805;DHT22;11064;47.102;15.452;2023-11-21T18:14:22;6.30;99.90
21805;DHT22;11064;47.102;15.452;2023-11-21T18:16:49;6.20;99.90
21805;DHT22;11064;47.102;15.452;2023-11-21T18:19:15;6.10;99.90
21805;DHT22;11064;47.102;15.452;2023-11-21T18:21:41;6.10;99.90
21805;DHT22;11064;47.102;15.452;2023-11-21T18:24:08;5.90;99.90
21805;DHT22;11064;47.102;15.452;2023-11-21T18:26:34;5.70;99.90
21805;DHT22;11064;47.102;15.452;2023-11-21T18:29:01;5.60;99.90
21805;DHT22;11064;47.102;15.452;2023-11-21T18:31:26;5.60;99.90
21805;DHT22;11064;47.102;15.452;2023-11-21T18:33:53;5.60;99.90
21805;DHT22;11064;47.102;15.452;2023-11-21T18:36:19;5.70;99.90
21805;DHT22;11064;47.102;15.452;2023-11-21T18:38:45;5.80;99.90
21805;DHT22;11064;47.102;15.452;2023-11-21T18:41:11;5.80;99.90
21805;DHT22;11064;47.102;15.452;2023-11-21T18:57:42;5.60;99.90
21805;DHT22;11064;47.102;15.452;2023-11-21T19:00:08;5.20;99.90
21805;DHT22;11064;47.102;15.452;2023-11-21T19:02:35;5.20;99.90
21805;DHT22;11064;47.102;15.452;2023-11-21T19:05:01;5.10;99.90
21805;DHT22;11064;47.102;15.452;2023-11-21T19:07:30;5.10;99.90
21805;DHT22;11064;47.102;15.452;2023-11-21T19:10:02;5.10;99.90
21805;DHT22;11064;47.102;15.452;2023-11-21T19:12:31;5.10;99.90
21805;DHT22;11064;47.102;15.452;2023-11-21T19:14:57;5.10;99.90
21805;DHT22;11064;47.102;15.452;2023-11-21T19:17:23;5.00;99.90
21805;DHT22;11064;47.102;15.452;2023-11-21T19:19:50;5.00;99.90
21805;DHT22;11064;47.102;15.452;2023-11-21T19:22:16;5.00;99.90
21805;DHT22;11064;47.102;15.452;2023-11-21T19:24:42;5.00;99.90
21805;DHT22;11064;47.102;15.452;2023-11-21T19:27:08;5.00;99.90
21805;DHT22;11064;47.102;15.452;2023-11-21T19:29:34;4.90;99.90
21805;DHT22;11064;47.102;15.452;2023-11-21T19:32:01;5.10;99.90
21805;DHT22;11064;47.102;15.452;2023-11-21T19:34:27;5.00;99.90
21805;DHT22;11064;47.102;15.452;2023-11-21T19:36:55;5.10;99.90
21805;DHT22;11064;47.102;15.452;2023-11-21T19:39:22;5.10;99.90
21805;DHT22;11064;47.102;15.452;2023-11-21T19:41:48;5.20;99.90
21805;DHT22;11064;47.102;15.452;2023-11-21T19:44:14;5.30;99.90
21805;DHT22;11064;47.102;15.452;2023-11-21T19:46:40;5.50;99.90
21805;DHT22;11064;47.102;15.452;2023-11-21T19:49:06;5.50;99.90
21805;DHT22;11064;47.102;15.452;2023-11-21T19:51:36;5.60;99.90
21805;DHT22;11064;47.102;15.452;2023-11-21T19:54:02;5.70;99.90
21805;DHT22;11064;47.102;15.452;2023-11-21T19:56:28;5.60;99.90
21805;DHT22;11064;47.102;15.452;2023-11-21T19:58:54;5.50;99.90
21805;DHT22;11064;47.102;15.452;2023-11-21T20:01:20;5.50;99.90
21805;DHT22;11064;47.102;15.452;2023-11-21T20:03:46;5.40;99.90
21805;DHT22;11064;47.102;15.452;2023-11-21T20:06:11;5.40;99.90
21805;DHT22;11064;47.102;15.452;2023-11-21T20:08:37;5.40;99.90
21805;DHT22;11064;47.102;15.452;2023-11-21T20:11:04;5.40;99.90
21805;DHT22;11064;47.102;15.452;2023-11-21T20:13:31;5.40;99.90
21805;DHT22;11064;47.102;15.452;2023-11-21T20:15:57;5.40;99.90
21805;DHT22;11064;47.102;15.452;2023-11-21T20:18:23;5.30;99.90
21805;DHT22;11064;47.102;15.452;2023-11-21T20:20:49;5.30;99.90
21805;DHT22;11064;47.102;15.452;2023-11-21T20:23:15;5.30;99.90
21805;DHT22;11064;47.102;15.452;2023-11-21T20:25:43;5.30;99.90
21805;DHT22;11064;47.102;15.452;2023-11-21T20:28:09;5.30;99.90
21805;DHT22;11064;47.102;15.452;2023-11-21T20:30:35;5.30;99.90
21805;DHT22;11064;47.102;15.452;2023-11-21T20:33:01;5.30;99.90
21805;DHT22;11064;47.102;15.452;2023-11-21T20:35:32;5.20;99.90
21805;DHT22;11064;47.102;15.452;2023-11-21T20:38:03;5.10;99.90
21805;DHT22;11064;47.102;15.452;2023-11-21T20:40:29;5.00;99.90
21805;DHT22;11064;47.102;15.452;2023-11-21T20:42:56;5.00;99.90
21805;DHT22;11064;47.102;15.452;2023-11-21T20:45:29;5.00;99.90
21805;DHT22;11064;47.102;15.452;2023-11-21T20:47:55;4.90;99.90
21805;DHT22;11064;47.102;15.452;2023-11-21T20:50:21;4.90;99.90
21805;DHT22;11064;47.102;15.452;2023-11-21T20:52:48;4.90;99.90
21805;DHT22;11064;47.102;15.452;2023-11-21T20:55:15;4.80;99.90
21805;DHT22;11064;47.102;15.452;2023-11-21T20:57:41;4.70;99.90
21805;DHT22;11064;47.102;15.452;2023-11-21T21:00:08;4.80;99.90
21805;DHT22;11064;47.102;15.452;2023-11-21T21:02:39;4.80;99.90
21805;DHT22;11064;47.102;15.452;2023-11-21T21:05:06;4.90;99.90
21805;DHT22;11064;47.102;15.452;2023-11-21T21:07:32;4.90;99.90